createdAt,value
2023-01-23T00:04:42.318Z,41.80
2023-01-23T00:09:45.251Z,36.53
2023-01-23T00:14:48.122Z,35.63
2023-01-23T00:19:53.984Z,40.03
2023-01-23T00:24:56.774Z,37.60
2023-01-23T00:29:59.669Z,39.17
2023-01-23T00:35:04.037Z,37.00
2023-01-23T00:40:08.282Z,38.80
2023-01-23T00:45:11.824Z,36.20
2023-01-23T00:50:16.134Z,37.75
2023-01-23T00:55:18.929Z,35.58
2023-01-23T01:00:22.038Z,35.95
2023-01-23T01:05:26.148Z,36.17
2023-01-23T01:10:29.647Z,38.65
2023-01-23T01:15:32.807Z,36.28
2023-01-23T01:20:37.004Z,39.97
2023-01-23T01:25:40.192Z,37.35
2023-01-23T01:30:43.087Z,35.20
2023-01-23T01:35:47.221Z,43.33
2023-01-23T01:40:50.402Z,42.20
2023-01-23T01:46:13.663Z,45.45
2023-01-23T01:51:23.647Z,47.05
2023-01-23T01:56:30.140Z,43.88
2023-01-23T02:01:33.348Z,45.45
2023-01-23T02:06:38.990Z,40.67
2023-01-23T02:11:43.432Z,40.15
2023-01-23T02:16:51.003Z,40.47
2023-01-23T02:22:07.180Z,36.47
2023-01-23T02:27:11.605Z,35.63
2023-01-23T02:32:14.674Z,41.65
2023-01-23T02:37:17.531Z,35.88
2023-01-23T02:42:23.702Z,31.73
2023-01-23T02:47:29.523Z,32.53
2023-01-23T02:52:34.248Z,33.95
2023-01-23T02:57:38.365Z,35.42
2023-01-23T03:02:41.207Z,40.65
2023-01-23T03:07:46.122Z,36.72
2023-01-23T03:12:50.270Z,37.75
2023-01-23T03:17:53.710Z,34.65
2023-01-23T03:22:57.221Z,34.38
2023-01-23T03:28:01.433Z,35.00
2023-01-23T03:33:04.397Z,35.75
2023-01-23T03:38:07.411Z,34.83
2023-01-23T03:43:11.718Z,31.85
2023-01-23T03:48:20.363Z,30.60
2023-01-23T03:53:23.365Z,30.58
2023-01-23T03:58:28.014Z,39.17
2023-01-23T04:03:32.830Z,31.00
2023-01-23T04:08:35.587Z,30.50
2023-01-23T04:13:40.237Z,28.90
2023-01-23T04:18:44.132Z,28.08
2023-01-23T04:23:46.983Z,35.45
2023-01-23T04:28:51.819Z,36.10
2023-01-23T04:33:54.642Z,33.08
2023-01-23T04:38:59.351Z,30.98
2023-01-23T04:44:19.312Z,31.63
2023-01-23T04:49:33.750Z,27.27
2023-01-23T04:54:36.760Z,25.60
2023-01-23T04:59:41.694Z,28.33
2023-01-23T05:04:44.568Z,24.35
2023-01-23T05:09:47.460Z,26.10
2023-01-23T05:14:53.386Z,27.08
2023-01-23T05:19:56.492Z,31.20
2023-01-23T05:24:59.262Z,33.10
2023-01-23T05:30:07.992Z,33.88
2023-01-23T05:35:11.827Z,36.25
2023-01-23T05:40:17.768Z,33.72
2023-01-23T05:45:42.280Z,33.28
2023-01-23T05:50:51.921Z,33.47
2023-01-23T05:55:55.566Z,28.83
2023-01-23T06:01:00.616Z,30.20
2023-01-23T06:06:21.754Z,32.97
2023-01-23T06:11:24.504Z,32.08
2023-01-23T06:16:28.856Z,28.35
2023-01-23T06:21:32.621Z,35.25
2023-01-23T06:26:35.814Z,35.60
2023-01-23T06:31:40.111Z,38.80
2023-01-23T06:36:46.156Z,34.05
2023-01-23T06:41:49.169Z,38.25
2023-01-23T06:46:59.650Z,36.28
2023-01-23T06:52:02.649Z,34.58
2023-01-23T06:57:06.039Z,37.20
2023-01-23T07:02:12.037Z,43.10
2023-01-23T07:07:23.115Z,42.22
2023-01-23T07:12:26.731Z,46.40
2023-01-23T07:17:30.989Z,48.00
2023-01-23T07:22:33.849Z,43.33
2023-01-23T07:27:36.659Z,43.13
2023-01-23T07:32:40.799Z,45.03
2023-01-23T07:37:43.628Z,41.13
2023-01-23T07:42:46.743Z,42.30
2023-01-23T07:47:50.866Z,31.05
2023-01-23T07:52:56.131Z,85.20
2023-01-23T07:57:59.605Z,36.15
2023-01-23T08:03:03.871Z,22.88
2023-01-23T08:08:13.421Z,23.00
2023-01-23T08:13:16.670Z,24.38
2023-01-23T08:18:20.798Z,21.02
2023-01-23T08:23:25.732Z,22.65
2023-01-23T08:28:28.873Z,22.13
2023-01-23T08:33:34.218Z,23.17
2023-01-23T08:38:37.009Z,27.42
2023-01-23T08:43:41.435Z,29.58
2023-01-23T08:48:45.645Z,24.45
2023-01-23T08:53:48.674Z,26.85
2023-01-23T08:58:52.167Z,28.10
2023-01-23T09:03:57.553Z,27.30
2023-01-23T09:09:00.369Z,25.70
2023-01-23T09:14:03.116Z,26.52
2023-01-23T09:19:08.152Z,25.92
2023-01-23T09:24:10.896Z,24.00
2023-01-23T09:29:13.658Z,19.55
2023-01-23T09:34:17.870Z,22.10
2023-01-23T09:39:21.873Z,27.80
2023-01-23T09:44:36.226Z,24.73
2023-01-23T09:49:47.118Z,25.25
2023-01-23T09:54:54.029Z,27.80
2023-01-23T10:00:04.909Z,23.55
2023-01-23T10:05:15.678Z,25.02
2023-01-23T10:10:54.737Z,22.83
2023-01-23T10:16:11.406Z,25.55
2023-01-23T10:21:26.346Z,22.92
2023-01-23T10:26:32.972Z,21.88
2023-01-23T10:31:39.617Z,25.08
2023-01-23T10:36:55.914Z,23.70
2023-01-23T10:42:02.482Z,28.58
2023-01-23T10:47:18.956Z,23.38
2023-01-23T10:52:36.254Z,23.35
2023-01-23T10:57:48.370Z,23.98
2023-01-23T11:02:51.547Z,24.67
2023-01-23T11:07:56.241Z,25.92
2023-01-23T11:13:00.839Z,25.88
2023-01-23T11:18:23.670Z,28.60
2023-01-23T11:28:35.313Z,21.20
2023-01-23T11:33:44.331Z,23.00
2023-01-23T11:38:53.207Z,21.25
2023-01-23T11:43:56.154Z,20.48
2023-01-23T11:49:14.646Z,20.05
2023-01-23T11:54:39.245Z,21.08
2023-01-23T12:00:00.941Z,21.83
2023-01-23T12:05:22.499Z,21.67
2023-01-23T12:10:31.377Z,19.40
2023-01-23T12:15:44.658Z,26.90
2023-01-23T12:20:57.492Z,24.00
2023-01-23T12:26:13.277Z,23.02
2023-01-23T12:31:30.118Z,21.25
2023-01-23T12:37:12.331Z,24.70
2023-01-23T12:42:26.313Z,25.50
2023-01-23T12:47:33.941Z,29.45
2023-01-23T12:52:41.010Z,24.08
2023-01-23T12:58:00.043Z,22.48
2023-01-23T13:03:25.926Z,27.23
2023-01-23T13:08:40.511Z,25.58
2023-01-23T13:13:55.236Z,23.33
2023-01-23T13:19:17.128Z,25.30
2023-01-23T13:24:59.607Z,28.43
2023-01-23T13:30:06.149Z,28.27
2023-01-23T13:35:50.026Z,28.30
2023-01-23T13:41:26.245Z,30.13
2023-01-23T14:24:22.870Z,36.45
2023-01-23T14:29:28.431Z,35.60
2023-01-23T14:34:40.193Z,40.05
2023-01-23T14:39:53.023Z,37.20
2023-01-23T14:44:58.023Z,35.08
2023-01-23T14:50:03.503Z,42.40
2023-01-23T14:55:32.655Z,45.15
2023-01-23T15:00:36.695Z,40.80
2023-01-23T15:05:41.701Z,43.60
2023-01-23T15:10:47.466Z,39.22
2023-01-23T15:15:56.659Z,38.80
2023-01-23T15:21:02.937Z,41.17
2023-01-23T15:26:23.723Z,38.15
2023-01-23T15:31:30.679Z,45.60
2023-01-23T15:36:34.971Z,40.90
2023-01-23T15:41:45.661Z,45.92
2023-01-23T15:46:48.799Z,40.83
2023-01-23T15:51:53.333Z,44.53
2023-01-23T15:57:06.665Z,46.42
2023-01-23T16:02:29.713Z,40.60
2023-01-23T16:07:37.583Z,47.55
2023-01-23T16:12:40.359Z,48.65
2023-01-23T16:17:43.173Z,39.90
2023-01-23T16:22:50.064Z,48.17
2023-01-23T16:27:52.867Z,40.72
2023-01-23T16:32:57.186Z,42.78
2023-01-23T16:38:01.390Z,41.95
2023-01-23T16:43:04.160Z,41.67
2023-01-23T16:48:09.123Z,42.85
2023-01-23T16:53:23.141Z,43.58
2023-01-23T16:58:28.944Z,42.08
2023-01-23T17:03:36.175Z,42.67
2023-01-23T17:08:40.366Z,42.33
2023-01-23T17:13:43.993Z,42.90
2023-01-23T17:18:46.844Z,44.50
2023-01-23T17:23:50.964Z,47.33
2023-01-23T17:28:53.837Z,43.33
2023-01-23T17:33:57.059Z,40.47
2023-01-23T17:39:01.427Z,38.28
2023-01-23T17:44:04.345Z,42.25
2023-01-23T17:49:30.192Z,41.85
2023-01-23T17:54:34.555Z,41.42
2023-01-23T17:59:37.351Z,46.33
2023-01-23T18:04:44.066Z,40.78
2023-01-23T18:09:48.212Z,38.90
2023-01-23T18:14:57.320Z,39.92
2023-01-23T18:20:00.652Z,41.30
2023-01-23T18:25:06.083Z,41.08
2023-01-23T18:30:22.176Z,37.25
2023-01-23T18:35:33.797Z,37.35
2023-01-23T18:40:49.239Z,37.77
2023-01-23T18:45:53.924Z,39.20
2023-01-23T18:51:09.597Z,40.55
2023-01-23T18:56:23.547Z,37.70
2023-01-23T19:01:36.095Z,38.85
2023-01-23T19:06:41.227Z,36.42
2023-01-23T19:11:57.338Z,33.50
2023-01-23T19:17:08.789Z,38.00
2023-01-23T19:22:13.547Z,41.08
2023-01-23T19:27:22.335Z,41.67
2023-01-23T19:32:25.872Z,41.50
2023-01-23T19:37:28.702Z,37.25
2023-01-23T19:42:48.884Z,39.45
2023-01-23T19:47:54.352Z,33.67
2023-01-23T19:52:58.596Z,36.03
2023-01-23T19:58:02.772Z,39.85
2023-01-23T20:03:05.991Z,32.15
2023-01-23T20:08:09.924Z,34.55
2023-01-23T20:13:15.156Z,39.38
2023-01-23T20:18:18.117Z,38.10
2023-01-23T20:23:20.926Z,38.03
2023-01-23T20:28:25.066Z,35.80
2023-01-23T20:33:27.826Z,36.25
2023-01-23T20:38:30.909Z,38.50
2023-01-23T20:43:35.394Z,36.22
2023-01-23T20:48:39.787Z,39.15
2023-01-23T20:53:43.182Z,35.55
2023-01-23T20:59:06.391Z,41.60
2023-01-23T21:04:09.186Z,37.25
2023-01-23T21:09:11.975Z,37.95
2023-01-23T21:14:16.489Z,39.83
2023-01-23T21:19:19.393Z,41.35
2023-01-23T21:24:22.326Z,35.30
2023-01-23T21:29:26.544Z,36.83
2023-01-23T21:34:29.411Z,35.13
2023-01-23T21:39:32.180Z,40.63
2023-01-23T21:44:36.314Z,37.38
2023-01-23T21:49:39.084Z,40.08
2023-01-23T21:54:43.138Z,35.22
2023-01-23T22:00:07.314Z,37.70
2023-01-23T22:05:16.094Z,38.30
2023-01-23T22:10:19.057Z,38.17
2023-01-23T22:15:23.679Z,35.53
2023-01-23T22:20:26.797Z,35.38
2023-01-23T22:25:29.581Z,30.90
2023-01-23T22:30:33.677Z,33.30
2023-01-23T22:35:38.806Z,34.80
2023-01-23T22:40:42.343Z,30.30
2023-01-23T22:45:46.397Z,29.77
2023-01-23T22:50:49.161Z,32.83
2023-01-23T22:55:51.902Z,33.90
2023-01-23T23:00:56.112Z,36.60
2023-01-23T23:05:59.783Z,34.92
2023-01-23T23:11:03.419Z,31.75
2023-01-23T23:16:09.245Z,33.60
2023-01-23T23:21:13.631Z,26.58
2023-01-23T23:26:16.817Z,29.42
2023-01-23T23:31:21.048Z,26.77
2023-01-23T23:36:23.946Z,27.90
2023-01-23T23:41:26.786Z,26.55
2023-01-23T23:46:30.903Z,27.52
2023-01-23T23:51:33.640Z,30.27
2023-01-23T23:56:36.359Z,31.80
